createdAt,value
2022-10-22T00:00:49.495Z,14.75
2022-10-22T00:31:10.396Z,17.70
2022-10-22T01:01:13.990Z,16.17
2022-10-22T01:31:17.041Z,17.83
2022-10-22T02:01:20.205Z,16.73
2022-10-22T02:31:23.054Z,18.90
2022-10-22T03:01:26.238Z,19.77
2022-10-22T03:31:29.315Z,20.80
2022-10-22T04:01:32.872Z,19.00
2022-10-22T04:31:35.723Z,25.00
2022-10-22T05:01:42.625Z,25.05
2022-10-22T05:31:46.577Z,26.67
2022-10-22T06:01:49.869Z,28.57
2022-10-22T06:31:52.836Z,23.43
2022-10-22T07:01:56.143Z,29.17
2022-10-22T07:32:00.041Z,23.07
2022-10-22T08:02:04.058Z,22.90
2022-10-22T08:32:08.039Z,18.33
2022-10-22T09:02:10.774Z,21.03
2022-10-22T09:32:14.696Z,18.10
2022-10-22T10:02:37.037Z,23.63
2022-10-22T10:32:42.095Z,23.10
2022-10-22T11:02:45.445Z,22.47
2022-10-22T11:32:48.889Z,24.90
2022-10-22T12:02:51.925Z,19.80
2022-10-22T12:32:55.437Z,13.00
2022-10-22T13:02:58.474Z,13.60
2022-10-22T13:33:01.827Z,14.47
2022-10-22T14:03:05.274Z,17.40
2022-10-22T14:33:08.146Z,18.10
2022-10-22T15:03:11.657Z,16.40
2022-10-22T15:33:15.680Z,18.50
2022-10-22T16:03:18.975Z,14.60
2022-10-22T16:33:22.425Z,16.83
2022-10-22T17:03:27.601Z,16.93
2022-10-22T17:33:32.461Z,18.40
2022-10-22T18:03:35.243Z,24.83
2022-10-22T18:33:39.248Z,24.90
2022-10-22T19:03:42.280Z,22.60
2022-10-22T19:33:46.213Z,21.77
2022-10-22T20:03:49.314Z,23.40
2022-10-22T20:33:53.551Z,22.27
2022-10-22T21:03:57.064Z,19.47
2022-10-22T21:34:00.515Z,17.93
2022-10-22T22:04:04.503Z,24.43
2022-10-22T22:34:08.103Z,25.70
2022-10-22T23:04:13.398Z,29.33
2022-10-22T23:34:17.008Z,27.07
